| time (UTC) | temp F | wind direction | speed MPH | gust MPH | rain 1hr in | rain 24hr in | rain mn in | humidity % | barometer mb |
| 20260902200016 | 74 | 342 | 1.0 | 3.0 | 0.00 | 0.00 | 0.00 | 82 | 1022.6 |
| 20260902195015 | 74 | 342 | 2.0 | 4.0 | 0.00 | 0.00 | 0.00 | 82 | 1022.6 |
| 20260902194016 | 75 | 342 | 2.0 | 3.0 | 0.00 | 0.00 | 0.00 | 81 | 1022.3 |
| 20260902193015 | 75 | 258 | 2.0 | 3.0 | 0.00 | 0.00 | 0.00 | 81 | 1022.3 |
| 20260902192017 | 76 | 218 | 0.0 | 2.0 | 0.00 | 0.00 | 0.00 | 81 | 1022.2 |
| 20260902191017 | 76 | 218 | 1.0 | 4.0 | 0.00 | 0.00 | 0.00 | 80 | 1022.1 |
| 20260902190016 | 76 | 218 | 2.0 | 4.0 | 0.00 | 0.00 | 0.00 | 80 | 1022.0 |
| 20260902183014 | 77 | 210 | 2.0 | 5.0 | 0.00 | 0.00 | 0.00 | 80 | 1021.7 |
| 20260902182016 | 77 | 213 | 3.0 | 7.0 | 0.00 | 0.00 | 0.00 | 79 | 1021.7 |
| 20260902181016 | 78 | 205 | 4.0 | 8.0 | 0.00 | 0.00 | 0.00 | 79 | 1021.8 |
| 20260902180016 | 78 | 206 | 3.0 | 6.0 | 0.00 | 0.00 | 0.00 | 79 | 1021.8 |
| 20260902174017 | 78 | 213 | 5.0 | 11.0 | 0.00 | 0.00 | 0.00 | 79 | 1021.9 |
| 20260902173015 | 79 | 221 | 4.0 | 9.0 | 0.00 | 0.00 | 0.00 | 78 | 1021.9 |
| 20260902172015 | 79 | 209 | 5.0 | 11.0 | 0.00 | 0.00 | 0.00 | 77 | 1021.9 |
| 20260902170018 | 80 | 193 | 4.0 | 12.0 | 0.00 | 0.00 | 0.00 | 76 | 1021.8 |
| 20260902165015 | 80 | 184 | 6.0 | 10.0 | 0.00 | 0.00 | 0.00 | 77 | 1021.8 |
| 20260902164015 | 81 | 184 | 4.0 | 10.0 | 0.00 | 0.00 | 0.00 | 77 | 1021.7 |
| 20260902163016 | 80 | 167 | 6.0 | 11.0 | 0.00 | 0.00 | 0.00 | 77 | 1021.8 |
| 20260902162017 | 81 | 166 | 6.0 | 12.0 | 0.00 | 0.00 | 0.00 | 75 | 1021.8 |
| 20260902161017 | 81 | 168 | 7.0 | 12.0 | 0.00 | 0.00 | 0.00 | 75 | 1021.8 |
| 20260902160018 | 81 | 169 | 6.0 | 11.0 | 0.00 | 0.00 | 0.00 | 75 | 1021.8 |
| 20260902155015 | 81 | 170 | 6.0 | 13.0 | 0.00 | 0.00 | 0.00 | 75 | 1021.9 |
| 20260902154015 | 82 | 166 | 7.0 | 16.0 | 0.00 | 0.00 | 0.00 | 74 | 1021.7 |
| 20260902153016 | 82 | 171 | 5.0 | 11.0 | 0.00 | 0.00 | 0.00 | 73 | 1021.8 |
| 20260902151017 | 82 | 178 | 6.0 | 14.0 | 0.00 | 0.00 | 0.00 | 74 | 1021.8 |
| 20260902144016 | 83 | 190 | 7.0 | 15.0 | 0.00 | 0.00 | 0.00 | 72 | 1021.8 |
| 20260902142014 | 84 | 164 | 5.0 | 12.0 | 0.00 | 0.00 | 0.00 | 69 | 1021.9 |
| 20260902141016 | 83 | 147 | 6.0 | 12.0 | 0.00 | 0.00 | 0.00 | 70 | 1022.0 |
| 20260902140020 | 84 | 158 | 8.0 | 14.0 | 0.00 | 0.00 | 0.00 | 69 | 1022.0 |
| 20260902135016 | 84 | 171 | 7.0 | 14.0 | 0.00 | 0.00 | 0.00 | 71 | 1022.1 |
| 20260902134017 | 84 | 169 | 6.0 | 12.0 | 0.00 | 0.00 | 0.00 | 70 | 1022.1 |
| 20260902133018 | 84 | 184 | 5.0 | 12.0 | 0.00 | 0.00 | 0.00 | 70 | 1022.1 |
| 20260902132018 | 83 | 159 | 5.0 | 12.0 | 0.00 | 0.00 | 0.00 | 71 | 1022.3 |
| 20260902131019 | 83 | 172 | 6.0 | 13.0 | 0.00 | 0.00 | 0.00 | 72 | 1022.4 |
| 20260902130016 | 83 | 160 | 6.0 | 14.0 | 0.00 | 0.00 | 0.00 | 72 | 1022.4 |
| 20260902125015 | 84 | 178 | 5.0 | 10.0 | 0.00 | 0.00 | 0.00 | 71 | 1022.4 |
| 20260902124015 | 83 | 170 | 7.0 | 15.0 | 0.00 | 0.00 | 0.00 | 72 | 1022.5 |
| 20260902123016 | 83 | 179 | 8.0 | 14.0 | 0.00 | 0.00 | 0.00 | 73 | 1022.5 |
| 20260902122014 | 83 | 182 | 6.0 | 13.0 | 0.00 | 0.00 | 0.00 | 72 | 1022.6 |
| 20260902121016 | 83 | 196 | 6.0 | 11.0 | 0.00 | 0.00 | 0.00 | 71 | 1022.7 |
| 20260902120019 | 82 | 191 | 6.0 | 12.0 | 0.00 | 0.00 | 0.00 | 73 | 1022.6 |
| 20260902115017 | 82 | 170 | 7.0 | 15.0 | 0.00 | 0.00 | 0.00 | 74 | 1022.7 |
| 20260902114015 | 82 | 177 | 8.0 | 14.0 | 0.00 | 0.00 | 0.00 | 74 | 1022.8 |
| 20260902113014 | 83 | 184 | 8.0 | 14.0 | 0.00 | 0.00 | 0.00 | 73 | 1022.8 |
| 20260902111015 | 83 | 185 | 9.0 | 15.0 | 0.00 | 0.00 | 0.00 | 74 | 1022.8 |
| 20260902110016 | 82 | 181 | 10.0 | 21.0 | 0.00 | 0.00 | 0.00 | 74 | 1022.8 |
| 20260902105016 | 83 | 184 | 8.0 | 16.0 | 0.00 | 0.00 | 0.00 | 72 | 1022.6 |
| 20260902104014 | 84 | 198 | 2.0 | 8.0 | 0.00 | 0.00 | 0.00 | 66 | 1022.6 |
| 20260902103016 | 84 | 157 | 2.0 | 8.0 | 0.00 | 0.00 | 0.00 | 66 | 1022.5 |
| 20260902102014 | 84 | 121 | 3.0 | 7.0 | 0.00 | 0.00 | 0.00 | 66 | 1022.5 |
| 20260902101014 | 83 | 144 | 4.0 | 7.0 | 0.00 | 0.00 | 0.00 | 66 | 1022.5 |
| 20260902095014 | 82 | 144 | 2.0 | 5.0 | 0.00 | 0.00 | 0.00 | 68 | 1022.7 |
| 20260902094019 | 82 | 162 | 4.0 | 10.0 | 0.00 | 0.00 | 0.00 | 68 | 1022.6 |
| 20260902093016 | 82 | 146 | 3.0 | 8.0 | 0.00 | 0.00 | 0.00 | 68 | 1022.6 |
| 20260902091014 | 81 | 178 | 3.0 | 5.0 | 0.00 | 0.00 | 0.00 | 69 | 1022.4 |
| 20260902090017 | 80 | 179 | 3.0 | 7.0 | 0.00 | 0.00 | 0.00 | 70 | 1022.3 |
| 20260902085015 | 80 | 187 | 2.0 | 6.0 | 0.00 | 0.00 | 0.00 | 71 | 1022.2 |
| 20260902084013 | 80 | 157 | 2.0 | 7.0 | 0.00 | 0.00 | 0.00 | 71 | 1022.0 |
| 20260902083013 | 79 | 105 | 2.0 | 7.0 | 0.00 | 0.00 | 0.00 | 72 | 1021.9 |
| 20260902082016 | 79 | 144 | 3.0 | 7.0 | 0.00 | 0.00 | 0.00 | 72 | 1021.9 |
| 20260902081014 | 79 | 107 | 2.0 | 5.0 | 0.00 | 0.00 | 0.00 | 72 | 1021.8 |
| 20260902080015 | 78 | 140 | 3.0 | 7.0 | 0.00 | 0.00 | 0.00 | 73 | 1021.6 |
| 20260902075014 | 78 | 122 | 2.0 | 4.0 | 0.00 | 0.00 | 0.00 | 73 | 1021.5 |
| 20260902074014 | 77 | 103 | 2.0 | 6.0 | 0.00 | 0.00 | 0.00 | 74 | 1021.6 |
| 20260902073015 | 77 | 101 | 3.0 | 5.0 | 0.00 | 0.00 | 0.00 | 74 | 1021.6 |
| 20260902072015 | 77 | 87 | 3.0 | 5.0 | 0.00 | 0.00 | 0.00 | 76 | 1021.6 |
| 20260902071016 | 76 | 93 | 2.0 | 4.0 | 0.00 | 0.00 | 0.00 | 76 | 1021.6 |
| 20260902070017 | 76 | 86 | 3.0 | 5.0 | 0.00 | 0.00 | 0.00 | 78 | 1021.5 |
| 20260902065017 | 75 | 46 | 2.0 | 5.0 | 0.00 | 0.00 | 0.00 | 79 | 1021.7 |
| 20260902064016 | 74 | 338 | 2.0 | 4.0 | 0.00 | 0.00 | 0.00 | 81 | 1021.4 |
| 20260902063016 | 73 | 338 | 1.0 | 3.0 | 0.00 | 0.00 | 0.00 | 81 | 1021.3 |
| 20260902062018 | 71 | 338 | 2.0 | 4.0 | 0.00 | 0.00 | 0.00 | 82 | 1021.2 |
| 20260902061015 | 71 | 338 | 2.0 | 3.0 | 0.00 | 0.00 | 0.00 | 82 | 1021.2 |
| 20260902060014 | 70 | 338 | 2.0 | 4.0 | 0.00 | 0.00 | 0.00 | 82 | 1021.1 |
| 20260902055015 | 70 | 338 | 2.0 | 3.0 | 0.00 | 0.00 | 0.00 | 82 | 1021.1 |
| 20260902054014 | 70 | 338 | 2.0 | 3.0 | 0.00 | 0.00 | 0.00 | 82 | 1021.1 |
| 20260902053016 | 70 | 338 | 2.0 | 4.0 | 0.00 | 0.00 | 0.00 | 82 | 1021.1 |
| 20260902052018 | 71 | 338 | 1.0 | 3.0 | 0.00 | 0.00 | 0.00 | 82 | 1021.1 |
| 20260902051014 | 71 | 338 | 3.0 | 4.0 | 0.00 | 0.00 | 0.00 | 82 | 1020.9 |
| 20260902050020 | 70 | 339 | 2.0 | 5.0 | 0.00 | 0.00 | 0.00 | 82 | 1020.7 |
| 20260902045016 | 70 | 338 | 2.0 | 4.0 | 0.00 | 0.00 | 0.00 | 82 | 1020.7 |
| 20260902044014 | 70 | 338 | 2.0 | 4.0 | 0.00 | 0.00 | 0.00 | 82 | 1020.7 |
| 20260902043014 | 70 | 344 | 3.0 | 5.0 | 0.00 | 0.00 | 0.00 | 81 | 1020.7 |
| 20260902042014 | 71 | 50 | 2.0 | 3.0 | 0.00 | 0.00 | 0.00 | 81 | 1020.8 |
| 20260902041014 | 71 | 50 | 2.0 | 3.0 | 0.00 | 0.00 | 0.00 | 81 | 1020.7 |
| 20260902040015 | 71 | 49 | 1.0 | 2.0 | 0.00 | 0.00 | 0.00 | 81 | 1020.8 |
| 20260902035015 | 71 | 331 | 2.0 | 4.0 | 0.00 | 0.00 | 0.00 | 80 | 1020.8 |
| 20260902034015 | 71 | 328 | 3.0 | 5.0 | 0.00 | 0.00 | 0.00 | 81 | 1020.8 |
| 20260902033013 | 71 | 324 | 3.0 | 7.0 | 0.00 | 0.00 | 0.00 | 81 | 1020.8 |
| 20260902032014 | 71 | 325 | 4.0 | 7.0 | 0.00 | 0.00 | 0.00 | 81 | 1020.8 |
| 20260902031016 | 71 | 336 | 3.0 | 5.0 | 0.00 | 0.00 | 0.00 | 82 | 1020.9 |
| 20260902030016 | 71 | 331 | 3.0 | 5.0 | 0.00 | 0.00 | 0.00 | 82 | 1020.9 |
| 20260902025013 | 71 | 335 | 3.0 | 6.0 | 0.00 | 0.00 | 0.00 | 82 | 1021.0 |
| 20260902024013 | 71 | 337 | 3.0 | 6.0 | 0.00 | 0.00 | 0.00 | 82 | 1021.1 |
| 20260902022014 | 72 | 344 | 3.0 | 5.0 | 0.00 | 0.00 | 0.00 | 83 | 1021.0 |
| 20260902021013 | 72 | 342 | 3.0 | 5.0 | 0.00 | 0.00 | 0.00 | 83 | 1020.9 |
| 20260902020014 | 72 | 332 | 2.0 | 4.0 | 0.00 | 0.00 | 0.00 | 83 | 1020.9 |
| 20260902015014 | 73 | 332 | 2.0 | 4.0 | 0.00 | 0.00 | 0.00 | 83 | 1020.9 |
| 20260902013014 | 73 | 331 | 2.0 | 4.0 | 0.00 | 0.00 | 0.00 | 83 | 1021.0 |
| 20260902012013 | 73 | 332 | 2.0 | 4.0 | 0.00 | 0.00 | 0.00 | 83 | 1021.1 |
| 20260902011014 | 74 | 332 | 2.0 | 4.0 | 0.00 | 0.00 | 0.00 | 83 | 1021.2 |
| 20260902010018 | 74 | 332 | 1.0 | 2.0 | 0.00 | 0.00 | 0.00 | 83 | 1021.3 |
| 20260902005013 | 74 | 332 | 0.0 | 2.0 | 0.00 | 0.00 | 0.00 | 83 | 1021.5 |
| 20260902004015 | 74 | 332 | 0.0 | 2.0 | 0.00 | 0.00 | 0.00 | 82 | 1021.4 |
| 20260902003013 | 74 | 332 | 1.0 | 3.0 | 0.00 | 0.00 | 0.00 | 82 | 1021.4 |
| 20260902002014 | 74 | 332 | 1.0 | 2.0 | 0.00 | 0.00 | 0.00 | 82 | 1021.4 |
| 20260902001015 | 74 | 332 | 0.0 | 2.0 | 0.00 | 0.00 | 0.00 | 82 | 1021.4 |
| 20260902000018 | 74 | 0 | 0.0 | 0.0 | 0.00 | 0.00 | 0.00 | 82 | 1021.3 |
| 20260901235013 | 74 | 332 | 0.0 | 2.0 | 0.00 | 0.00 | 0.00 | 82 | 1021.5 |
| 20260901234015 | 74 | 332 | 1.0 | 3.0 | 0.00 | 0.00 | 0.00 | 82 | 1021.4 |
| 20260901232017 | 74 | 332 | 1.0 | 2.0 | 0.00 | 0.00 | 0.00 | 82 | 1021.4 |
| 20260901231013 | 74 | 332 | 1.0 | 3.0 | 0.00 | 0.00 | 0.00 | 83 | 1021.5 |
| 20260901230017 | 73 | 332 | 1.0 | 3.0 | 0.00 | 0.00 | 0.00 | 83 | 1021.4 |
| 20260901225013 | 73 | 332 | 2.0 | 5.0 | 0.00 | 0.00 | 0.00 | 83 | 1021.3 |
| 20260901224017 | 73 | 332 | 2.0 | 4.0 | 0.00 | 0.00 | 0.00 | 83 | 1021.2 |
| 20260901223014 | 73 | 332 | 0.0 | 3.0 | 0.00 | 0.00 | 0.00 | 83 | 1021.1 |
| 20260901222015 | 73 | 0 | 0.0 | 0.0 | 0.00 | 0.00 | 0.00 | 83 | 1021.1 |
| 20260901221014 | 73 | 332 | 0.0 | 3.0 | 0.00 | 0.00 | 0.00 | 82 | 1021.2 |
| 20260901220015 | 73 | 332 | 2.0 | 4.0 | 0.00 | 0.00 | 0.00 | 82 | 1021.1 |
| 20260901215015 | 73 | 332 | 3.0 | 4.0 | 0.00 | 0.00 | 0.00 | 82 | 1020.9 |
| 20260901213015 | 73 | 332 | 3.0 | 4.0 | 0.00 | 0.00 | 0.00 | 81 | 1021.1 |
| 20260901212014 | 73 | 332 | 2.0 | 4.0 | 0.00 | 0.00 | 0.00 | 81 | 1021.0 |
| 20260901211013 | 73 | 332 | 2.0 | 3.0 | 0.00 | 0.00 | 0.00 | 81 | 1020.9 |
| 20260901210015 | 74 | 332 | 1.0 | 2.0 | 0.00 | 0.00 | 0.00 | 81 | 1020.8 |
| 20260901205020 | 73 | 332 | 1.0 | 3.0 | 0.00 | 0.00 | 0.00 | 81 | 1020.9 |
| 20260901203016 | 73 | 332 | 2.0 | 3.0 | 0.00 | 0.00 | 0.00 | 81 | 1020.8 |
| 20260901202013 | 73 | 332 | 1.0 | 3.0 | 0.00 | 0.00 | 0.00 | 81 | 1020.5 |
| 20260901201013 | 72 | 332 | 2.0 | 3.0 | 0.00 | 0.00 | 0.00 | 82 | 1020.4 |